Flight Number: AVA1726 Duration: 2:30
Departure: Istanbul / Ataturk (LTBA) at 16:00 Distance: 1007.52 Nm
Arrival: Frankfurt am Main (EDDF) at 18:30 Equipment: B737

Weather Information
Istanbul / Ataturk, Turkey (LTBA) 40-58N 028-49E 37M May 25, 2024 - 11:20 PM EDT / 2024.05.26 0320 UTC
Wind: from the N (010 degrees) at 5 MPH (4 KT):0
Visibility: greater than 7 mile(s):0 Temperature: 60 F (16 C) Dew Point: 57 F (14 C) Relative Humidity: 87% Pressure (altimeter): 29.94 in. Hg (1014 hPa)
ob: LTBA 260320Z 01004KT CAVOK 16/14 Q1014 cycle: 3
Sunrise: 02:41 Sunset: 17:22 (UTC)

Frankfurt / M-Flughafen, Germany (EDDF) 50-03N 008-36E 113M May 25, 2024 - 11:20 PM EDT / 2024.05.26 0320 UTC
Wind: from the ENE (060 degrees) at 5 MPH (4 KT):0
Visibility: greater than 7 mile(s):0 Temperature: 53 F (12 C) Dew Point: 51 F (11 C) Relative Humidity: 93% Pressure (altimeter): 30.03 in. Hg (1017 hPa)
ob: EDDF 260320Z AUTO 06004KT CAVOK 12/11 Q1017 NOSIG cycle: 3
Sunrise: 03:29 Sunset: 19:16 (UTC)

TAF:2024/05/25 18:27 TAF TAF EDDF 251700Z 2518/2624 24005KT 9999 FEW040 BECMG 2518/2522 06004KT BECMG 2607/2610 20006KT

Previous Pireps for this route
Date Flightnr Aircraft Flight time Fuel used Landing rate On time
2016-03-04AVA1365A3212.41196270Yes
(pireps marked green are flown by you)

Route map